sensor_id;sensor_type;location;lat;lon;timestamp;P1;durP1;ratioP1;P2;durP2;ratioP2
76765;SDS011;65707;52.362;6.588;2023-09-30T00:01:57;20.95;;;4.30;;
76765;SDS011;65707;52.362;6.588;2023-09-30T00:04:24;15.57;;;3.53;;
76765;SDS011;65707;52.362;6.588;2023-09-30T00:06:52;26.90;;;4.88;;
76765;SDS011;65707;52.362;6.588;2023-09-30T00:09:21;22.30;;;5.65;;
76765;SDS011;65707;52.362;6.588;2023-09-30T00:11:48;18.85;;;4.72;;
76765;SDS011;65707;52.362;6.588;2023-09-30T00:14:14;18.73;;;4.50;;
76765;SDS011;65707;52.362;6.588;2023-09-30T00:16:42;23.75;;;5.20;;
76765;SDS011;65707;52.362;6.588;2023-09-30T00:19:09;20.92;;;5.18;;
76765;SDS011;65707;52.362;6.588;2023-09-30T00:21:36;24.00;;;4.97;;
76765;SDS011;65707;52.362;6.588;2023-09-30T00:24:03;18.88;;;4.85;;
76765;SDS011;65707;52.362;6.588;2023-09-30T00:26:31;20.60;;;4.40;;
76765;SDS011;65707;52.362;6.588;2023-09-30T00:28:58;19.08;;;4.40;;
76765;SDS011;65707;52.362;6.588;2023-09-30T00:31:25;25.00;;;4.90;;
76765;SDS011;65707;52.362;6.588;2023-09-30T00:33:52;26.30;;;5.03;;
76765;SDS011;65707;52.362;6.588;2023-09-30T00:36:19;23.15;;;5.70;;
76765;SDS011;65707;52.362;6.588;2023-09-30T00:38:46;20.10;;;4.70;;
76765;SDS011;65707;52.362;6.588;2023-09-30T00:41:12;17.25;;;4.28;;
76765;SDS011;65707;52.362;6.588;2023-09-30T00:43:41;17.77;;;4.30;;
76765;SDS011;65707;52.362;6.588;2023-09-30T00:46:11;21.38;;;4.47;;
76765;SDS011;65707;52.362;6.588;2023-09-30T00:48:52;13.93;;;3.92;;
76765;SDS011;65707;52.362;6.588;2023-09-30T00:51:20;21.52;;;4.70;;
76765;SDS011;65707;52.362;6.588;2023-09-30T00:53:48;17.27;;;4.30;;
76765;SDS011;65707;52.362;6.588;2023-09-30T00:56:17;20.02;;;3.90;;
76765;SDS011;65707;52.362;6.588;2023-09-30T00:58:47;22.55;;;4.00;;
76765;SDS011;65707;52.362;6.588;2023-09-30T01:01:16;21.98;;;4.00;;
76765;SDS011;65707;52.362;6.588;2023-09-30T01:03:43;21.45;;;3.85;;
76765;SDS011;65707;52.362;6.588;2023-09-30T01:06:11;19.17;;;4.35;;
76765;SDS011;65707;52.362;6.588;2023-09-30T01:08:38;18.13;;;4.43;;
76765;SDS011;65707;52.362;6.588;2023-09-30T01:11:06;21.15;;;3.55;;
76765;SDS011;65707;52.362;6.588;2023-09-30T01:13:34;15.13;;;3.55;;
76765;SDS011;65707;52.362;6.588;2023-09-30T01:16:05;24.35;;;4.00;;
76765;SDS011;65707;52.362;6.588;2023-09-30T01:18:34;20.58;;;3.33;;
76765;SDS011;65707;52.362;6.588;2023-09-30T01:21:03;16.45;;;3.58;;
76765;SDS011;65707;52.362;6.588;2023-09-30T01:23:33;18.40;;;3.80;;
76765;SDS011;65707;52.362;6.588;2023-09-30T01:26:01;21.02;;;4.03;;
76765;SDS011;65707;52.362;6.588;2023-09-30T01:28:30;24.30;;;3.35;;
76765;SDS011;65707;52.362;6.588;2023-09-30T01:30:57;19.00;;;4.45;;
76765;SDS011;65707;52.362;6.588;2023-09-30T01:33:24;16.20;;;3.85;;
76765;SDS011;65707;52.362;6.588;2023-09-30T01:35:51;18.35;;;3.30;;
76765;SDS011;65707;52.362;6.588;2023-09-30T01:38:18;16.52;;;3.45;;
76765;SDS011;65707;52.362;6.588;2023-09-30T01:40:46;16.95;;;3.63;;
76765;SDS011;65707;52.362;6.588;2023-09-30T01:43:13;19.15;;;3.67;;
76765;SDS011;65707;52.362;6.588;2023-09-30T01:45:41;18.08;;;3.75;;
76765;SDS011;65707;52.362;6.588;2023-09-30T01:48:08;21.73;;;3.42;;
76765;SDS011;65707;52.362;6.588;2023-09-30T01:50:36;18.67;;;3.58;;
76765;SDS011;65707;52.362;6.588;2023-09-30T01:53:03;22.05;;;3.80;;
76765;SDS011;65707;52.362;6.588;2023-09-30T01:55:30;19.17;;;4.43;;
76765;SDS011;65707;52.362;6.588;2023-09-30T01:57:58;13.63;;;3.33;;
76765;SDS011;65707;52.362;6.588;2023-09-30T02:00:24;18.55;;;3.97;;
76765;SDS011;65707;52.362;6.588;2023-09-30T02:02:53;19.25;;;3.90;;
76765;SDS011;65707;52.362;6.588;2023-09-30T02:05:20;19.20;;;4.30;;
76765;SDS011;65707;52.362;6.588;2023-09-30T02:07:48;18.88;;;3.50;;
76765;SDS011;65707;52.362;6.588;2023-09-30T02:10:15;17.52;;;4.40;;
76765;SDS011;65707;52.362;6.588;2023-09-30T02:12:43;18.70;;;3.92;;
76765;SDS011;65707;52.362;6.588;2023-09-30T02:15:12;20.85;;;4.72;;
76765;SDS011;65707;52.362;6.588;2023-09-30T02:17:39;18.30;;;4.43;;
76765;SDS011;65707;52.362;6.588;2023-09-30T02:20:10;18.85;;;4.32;;
76765;SDS011;65707;52.362;6.588;2023-09-30T02:22:41;17.33;;;4.13;;
76765;SDS011;65707;52.362;6.588;2023-09-30T02:25:09;19.83;;;4.78;;
76765;SDS011;65707;52.362;6.588;2023-09-30T02:27:37;20.50;;;4.40;;
76765;SDS011;65707;52.362;6.588;2023-09-30T02:30:07;18.08;;;3.97;;
76765;SDS011;65707;52.362;6.588;2023-09-30T02:32:38;17.48;;;5.22;;
76765;SDS011;65707;52.362;6.588;2023-09-30T02:35:06;22.05;;;5.07;;
76765;SDS011;65707;52.362;6.588;2023-09-30T02:37:36;19.75;;;4.53;;
76765;SDS011;65707;52.362;6.588;2023-09-30T02:40:03;18.58;;;4.93;;
76765;SDS011;65707;52.362;6.588;2023-09-30T02:42:34;24.15;;;5.00;;
76765;SDS011;65707;52.362;6.588;2023-09-30T02:45:01;22.13;;;4.85;;
76765;SDS011;65707;52.362;6.588;2023-09-30T02:47:29;20.40;;;4.78;;
76765;SDS011;65707;52.362;6.588;2023-09-30T02:49:58;23.25;;;5.93;;
76765;SDS011;65707;52.362;6.588;2023-09-30T02:52:25;24.98;;;5.13;;
76765;SDS011;65707;52.362;6.588;2023-09-30T02:54:53;23.88;;;4.97;;
76765;SDS011;65707;52.362;6.588;2023-09-30T02:57:22;18.02;;;5.13;;
76765;SDS011;65707;52.362;6.588;2023-09-30T02:59:49;20.75;;;5.38;;
76765;SDS011;65707;52.362;6.588;2023-09-30T03:02:16;21.98;;;5.13;;
76765;SDS011;65707;52.362;6.588;2023-09-30T03:04:44;21.58;;;5.60;;
76765;SDS011;65707;52.362;6.588;2023-09-30T03:07:12;21.17;;;5.63;;
76765;SDS011;65707;52.362;6.588;2023-09-30T03:09:39;21.42;;;5.57;;
76765;SDS011;65707;52.362;6.588;2023-09-30T03:12:06;19.30;;;5.32;;
76765;SDS011;65707;52.362;6.588;2023-09-30T03:14:34;19.30;;;5.65;;
76765;SDS011;65707;52.362;6.588;2023-09-30T03:17:01;20.88;;;6.05;;
76765;SDS011;65707;52.362;6.588;2023-09-30T03:19:28;21.10;;;5.57;;
76765;SDS011;65707;52.362;6.588;2023-09-30T03:21:55;27.13;;;6.63;;
76765;SDS011;65707;52.362;6.588;2023-09-30T03:24:23;18.58;;;5.57;;
76765;SDS011;65707;52.362;6.588;2023-09-30T03:26:52;24.70;;;5.88;;
76765;SDS011;65707;52.362;6.588;2023-09-30T03:29:19;20.08;;;6.55;;
76765;SDS011;65707;52.362;6.588;2023-09-30T03:31:45;26.35;;;6.20;;
76765;SDS011;65707;52.362;6.588;2023-09-30T03:34:12;25.70;;;6.15;;
76765;SDS011;65707;52.362;6.588;2023-09-30T03:36:41;23.45;;;6.43;;
76765;SDS011;65707;52.362;6.588;2023-09-30T03:39:08;25.20;;;6.40;;
76765;SDS011;65707;52.362;6.588;2023-09-30T03:41:41;20.13;;;6.15;;
76765;SDS011;65707;52.362;6.588;2023-09-30T03:44:07;23.05;;;6.43;;
76765;SDS011;65707;52.362;6.588;2023-09-30T03:46:34;25.80;;;6.05;;
76765;SDS011;65707;52.362;6.588;2023-09-30T03:49:01;22.83;;;5.97;;
76765;SDS011;65707;52.362;6.588;2023-09-30T03:51:28;26.67;;;6.95;;
76765;SDS011;65707;52.362;6.588;2023-09-30T03:53:55;21.48;;;6.43;;
76765;SDS011;65707;52.362;6.588;2023-09-30T03:56:22;24.88;;;6.47;;
76765;SDS011;65707;52.362;6.588;2023-09-30T03:58:50;25.20;;;6.10;;
76765;SDS011;65707;52.362;6.588;2023-09-30T04:01:17;28.08;;;6.95;;
76765;SDS011;65707;52.362;6.588;2023-09-30T04:03:45;23.02;;;6.05;;
76765;SDS011;65707;52.362;6.588;2023-09-30T04:06:11;26.10;;;6.30;;
76765;SDS011;65707;52.362;6.588;2023-09-30T04:08:38;26.10;;;6.55;;
76765;SDS011;65707;52.362;6.588;2023-09-30T04:11:05;23.52;;;6.70;;
76765;SDS011;65707;52.362;6.588;2023-09-30T04:13:32;25.88;;;6.78;;
76765;SDS011;65707;52.362;6.588;2023-09-30T04:16:01;24.58;;;6.50;;
76765;SDS011;65707;52.362;6.588;2023-09-30T04:18:28;20.77;;;6.63;;
76765;SDS011;65707;52.362;6.588;2023-09-30T04:20:55;26.15;;;6.85;;
76765;SDS011;65707;52.362;6.588;2023-09-30T04:23:22;22.77;;;6.68;;
76765;SDS011;65707;52.362;6.588;2023-09-30T04:25:48;25.52;;;6.93;;
76765;SDS011;65707;52.362;6.588;2023-09-30T04:28:15;26.60;;;6.85;;
76765;SDS011;65707;52.362;6.588;2023-09-30T04:33:15;23.35;;;6.63;;
76765;SDS011;65707;52.362;6.588;2023-09-30T04:35:42;22.67;;;6.38;;
76765;SDS011;65707;52.362;6.588;2023-09-30T04:38:09;25.55;;;6.72;;
76765;SDS011;65707;52.362;6.588;2023-09-30T04:40:36;24.98;;;7.10;;
76765;SDS011;65707;52.362;6.588;2023-09-30T04:43:03;25.23;;;6.88;;
76765;SDS011;65707;52.362;6.588;2023-09-30T04:45:30;25.40;;;6.95;;
76765;SDS011;65707;52.362;6.588;2023-09-30T04:47:58;20.58;;;6.35;;
76765;SDS011;65707;52.362;6.588;2023-09-30T04:50:28;25.70;;;6.40;;
76765;SDS011;65707;52.362;6.588;2023-09-30T04:52:55;21.10;;;7.05;;
76765;SDS011;65707;52.362;6.588;2023-09-30T04:55:23;25.25;;;7.13;;
76765;SDS011;65707;52.362;6.588;2023-09-30T04:57:51;24.27;;;6.43;;
76765;SDS011;65707;52.362;6.588;2023-09-30T05:00:19;22.35;;;6.50;;
76765;SDS011;65707;52.362;6.588;2023-09-30T05:02:50;29.05;;;7.00;;
76765;SDS011;65707;52.362;6.588;2023-09-30T05:05:18;24.27;;;6.80;;
76765;SDS011;65707;52.362;6.588;2023-09-30T05:07:47;23.52;;;6.88;;
76765;SDS011;65707;52.362;6.588;2023-09-30T05:10:14;21.40;;;6.63;;
76765;SDS011;65707;52.362;6.588;2023-09-30T05:12:42;27.08;;;7.78;;
76765;SDS011;65707;52.362;6.588;2023-09-30T05:15:10;23.00;;;6.80;;
76765;SDS011;65707;52.362;6.588;2023-09-30T05:17:40;29.25;;;7.15;;
76765;SDS011;65707;52.362;6.588;2023-09-30T05:20:08;24.42;;;7.32;;
76765;SDS011;65707;52.362;6.588;2023-09-30T05:22:37;18.25;;;6.55;;
76765;SDS011;65707;52.362;6.588;2023-09-30T05:25:07;23.95;;;6.80;;
76765;SDS011;65707;52.362;6.588;2023-09-30T05:27:34;26.50;;;6.53;;
76765;SDS011;65707;52.362;6.588;2023-09-30T05:30:01;27.45;;;6.75;;
76765;SDS011;65707;52.362;6.588;2023-09-30T05:32:27;19.17;;;6.22;;
76765;SDS011;65707;52.362;6.588;2023-09-30T05:34:54;25.67;;;7.00;;
76765;SDS011;65707;52.362;6.588;2023-09-30T05:37:21;21.13;;;6.72;;
76765;SDS011;65707;52.362;6.588;2023-09-30T05:39:48;28.58;;;7.28;;
76765;SDS011;65707;52.362;6.588;2023-09-30T05:42:16;21.50;;;6.93;;
76765;SDS011;65707;52.362;6.588;2023-09-30T05:44:43;25.75;;;7.38;;
76765;SDS011;65707;52.362;6.588;2023-09-30T05:47:11;26.58;;;7.18;;
76765;SDS011;65707;52.362;6.588;2023-09-30T05:49:38;26.10;;;7.47;;
76765;SDS011;65707;52.362;6.588;2023-09-30T05:52:05;28.65;;;7.43;;
76765;SDS011;65707;52.362;6.588;2023-09-30T05:54:31;29.25;;;7.97;;
76765;SDS011;65707;52.362;6.588;2023-09-30T05:56:58;24.98;;;7.97;;
76765;SDS011;65707;52.362;6.588;2023-09-30T05:59:27;29.38;;;7.53;;
76765;SDS011;65707;52.362;6.588;2023-09-30T06:01:54;25.75;;;7.93;;
76765;SDS011;65707;52.362;6.588;2023-09-30T06:04:21;32.33;;;8.70;;
76765;SDS011;65707;52.362;6.588;2023-09-30T06:06:48;26.15;;;7.55;;
76765;SDS011;65707;52.362;6.588;2023-09-30T06:09:14;25.27;;;8.95;;
76765;SDS011;65707;52.362;6.588;2023-09-30T06:11:41;31.02;;;8.52;;
76765;SDS011;65707;52.362;6.588;2023-09-30T06:14:08;27.20;;;8.50;;
76765;SDS011;65707;52.362;6.588;2023-09-30T06:16:36;35.05;;;9.23;;
76765;SDS011;65707;52.362;6.588;2023-09-30T06:19:03;25.92;;;8.35;;
76765;SDS011;65707;52.362;6.588;2023-09-30T06:21:30;29.75;;;9.00;;
76765;SDS011;65707;52.362;6.588;2023-09-30T06:23:59;29.33;;;9.13;;
76765;SDS011;65707;52.362;6.588;2023-09-30T06:26:26;35.60;;;9.73;;
76765;SDS011;65707;52.362;6.588;2023-09-30T06:28:54;30.90;;;9.90;;
76765;SDS011;65707;52.362;6.588;2023-09-30T06:31:21;37.13;;;9.75;;
76765;SDS011;65707;52.362;6.588;2023-09-30T06:33:50;35.67;;;9.88;;
76765;SDS011;65707;52.362;6.588;2023-09-30T06:36:17;35.78;;;10.27;;
76765;SDS011;65707;52.362;6.588;2023-09-30T06:38:46;30.73;;;9.98;;
76765;SDS011;65707;52.362;6.588;2023-09-30T06:41:15;33.85;;;10.60;;
76765;SDS011;65707;52.362;6.588;2023-09-30T06:43:43;31.02;;;10.18;;
76765;SDS011;65707;52.362;6.588;2023-09-30T06:46:11;32.63;;;10.20;;
76765;SDS011;65707;52.362;6.588;2023-09-30T06:48:39;36.28;;;11.10;;
76765;SDS011;65707;52.362;6.588;2023-09-30T06:51:07;36.25;;;10.27;;
76765;SDS011;65707;52.362;6.588;2023-09-30T06:53:40;31.17;;;10.68;;
76765;SDS011;65707;52.362;6.588;2023-09-30T06:56:06;30.90;;;11.15;;
76765;SDS011;65707;52.362;6.588;2023-09-30T06:58:33;32.10;;;12.13;;
76765;SDS011;65707;52.362;6.588;2023-09-30T07:01:00;33.67;;;11.48;;
76765;SDS011;65707;52.362;6.588;2023-09-30T07:03:27;29.75;;;11.20;;
76765;SDS011;65707;52.362;6.588;2023-09-30T07:05:54;33.38;;;12.05;;
76765;SDS011;65707;52.362;6.588;2023-09-30T07:08:26;33.58;;;11.57;;
76765;SDS011;65707;52.362;6.588;2023-09-30T07:10:54;33.80;;;12.07;;
76765;SDS011;65707;52.362;6.588;2023-09-30T07:13:21;33.70;;;12.23;;
76765;SDS011;65707;52.362;6.588;2023-09-30T07:15:48;34.97;;;11.95;;
76765;SDS011;65707;52.362;6.588;2023-09-30T07:18:16;33.45;;;12.25;;
76765;SDS011;65707;52.362;6.588;2023-09-30T07:20:43;31.90;;;12.90;;
76765;SDS011;65707;52.362;6.588;2023-09-30T07:23:10;32.10;;;12.13;;
76765;SDS011;65707;52.362;6.588;2023-09-30T07:25:39;32.45;;;11.93;;
76765;SDS011;65707;52.362;6.588;2023-09-30T07:28:07;29.70;;;12.13;;
76765;SDS011;65707;52.362;6.588;2023-09-30T07:30:36;36.38;;;12.25;;
76765;SDS011;65707;52.362;6.588;2023-09-30T07:33:04;26.20;;;11.82;;
76765;SDS011;65707;52.362;6.588;2023-09-30T07:35:32;26.95;;;11.30;;
76765;SDS011;65707;52.362;6.588;2023-09-30T07:38:00;25.38;;;11.02;;
76765;SDS011;65707;52.362;6.588;2023-09-30T07:40:27;24.98;;;10.30;;
76765;SDS011;65707;52.362;6.588;2023-09-30T07:42:56;25.23;;;10.52;;
76765;SDS011;65707;52.362;6.588;2023-09-30T07:45:22;23.02;;;10.60;;
76765;SDS011;65707;52.362;6.588;2023-09-30T07:47:49;21.80;;;10.00;;
76765;SDS011;65707;52.362;6.588;2023-09-30T07:50:16;22.67;;;9.75;;
76765;SDS011;65707;52.362;6.588;2023-09-30T07:52:43;21.35;;;10.27;;
76765;SDS011;65707;52.362;6.588;2023-09-30T07:55:11;20.15;;;10.18;;
76765;SDS011;65707;52.362;6.588;2023-09-30T07:57:39;20.75;;;9.95;;
76765;SDS011;65707;52.362;6.588;2023-09-30T08:00:10;20.35;;;9.55;;
76765;SDS011;65707;52.362;6.588;2023-09-30T08:02:40;17.55;;;9.50;;
76765;SDS011;65707;52.362;6.588;2023-09-30T08:05:08;22.13;;;10.13;;
76765;SDS011;65707;52.362;6.588;2023-09-30T08:07:37;22.30;;;9.50;;
76765;SDS011;65707;52.362;6.588;2023-09-30T08:10:04;22.05;;;10.02;;
76765;SDS011;65707;52.362;6.588;2023-09-30T08:12:38;20.45;;;9.27;;
76765;SDS011;65707;52.362;6.588;2023-09-30T08:15:05;20.70;;;9.93;;
76765;SDS011;65707;52.362;6.588;2023-09-30T08:17:35;20.65;;;9.25;;
76765;SDS011;65707;52.362;6.588;2023-09-30T08:20:01;18.08;;;9.35;;
76765;SDS011;65707;52.362;6.588;2023-09-30T08:22:29;18.98;;;8.60;;
76765;SDS011;65707;52.362;6.588;2023-09-30T08:24:56;16.90;;;9.68;;
76765;SDS011;65707;52.362;6.588;2023-09-30T08:27:24;19.60;;;9.10;;
76765;SDS011;65707;52.362;6.588;2023-09-30T08:29:50;18.58;;;9.60;;
76765;SDS011;65707;52.362;6.588;2023-09-30T08:32:17;18.15;;;8.88;;
76765;SDS011;65707;52.362;6.588;2023-09-30T08:34:45;21.35;;;9.32;;
76765;SDS011;65707;52.362;6.588;2023-09-30T08:37:12;21.77;;;9.63;;
76765;SDS011;65707;52.362;6.588;2023-09-30T08:39:39;21.05;;;9.77;;
76765;SDS011;65707;52.362;6.588;2023-09-30T08:42:08;22.17;;;10.05;;
76765;SDS011;65707;52.362;6.588;2023-09-30T08:44:37;21.42;;;9.52;;
76765;SDS011;65707;52.362;6.588;2023-09-30T08:47:05;19.23;;;8.45;;
76765;SDS011;65707;52.362;6.588;2023-09-30T08:52:05;19.15;;;9.07;;
76765;SDS011;65707;52.362;6.588;2023-09-30T08:54:35;18.92;;;8.13;;
76765;SDS011;65707;52.362;6.588;2023-09-30T08:57:02;18.33;;;8.48;;
76765;SDS011;65707;52.362;6.588;2023-09-30T08:59:30;16.63;;;8.38;;
76765;SDS011;65707;52.362;6.588;2023-09-30T09:02:01;16.90;;;7.65;;
76765;SDS011;65707;52.362;6.588;2023-09-30T09:04:34;19.05;;;8.45;;
76765;SDS011;65707;52.362;6.588;2023-09-30T09:07:01;21.23;;;8.45;;
76765;SDS011;65707;52.362;6.588;2023-09-30T09:09:29;17.83;;;8.30;;
76765;SDS011;65707;52.362;6.588;2023-09-30T09:11:57;19.13;;;7.57;;
76765;SDS011;65707;52.362;6.588;2023-09-30T09:14:36;17.73;;;7.65;;
76765;SDS011;65707;52.362;6.588;2023-09-30T09:17:06;16.20;;;7.18;;
76765;SDS011;65707;52.362;6.588;2023-09-30T09:19:34;17.35;;;7.55;;
76765;SDS011;65707;52.362;6.588;2023-09-30T09:22:02;15.82;;;7.63;;
76765;SDS011;65707;52.362;6.588;2023-09-30T09:24:34;15.85;;;6.63;;
76765;SDS011;65707;52.362;6.588;2023-09-30T09:27:04;17.60;;;7.55;;
76765;SDS011;65707;52.362;6.588;2023-09-30T09:29:32;14.10;;;6.60;;
76765;SDS011;65707;52.362;6.588;2023-09-30T09:32:06;13.90;;;7.03;;
76765;SDS011;65707;52.362;6.588;2023-09-30T09:34:36;16.00;;;7.53;;
76765;SDS011;65707;52.362;6.588;2023-09-30T09:37:12;14.85;;;6.75;;
76765;SDS011;65707;52.362;6.588;2023-09-30T09:39:52;15.50;;;6.15;;
76765;SDS011;65707;52.362;6.588;2023-09-30T09:42:25;15.77;;;6.03;;
76765;SDS011;65707;52.362;6.588;2023-09-30T09:44:54;15.68;;;5.28;;
76765;SDS011;65707;52.362;6.588;2023-09-30T09:47:23;13.70;;;5.13;;
76765;SDS011;65707;52.362;6.588;2023-09-30T09:49:51;16.25;;;7.20;;
76765;SDS011;65707;52.362;6.588;2023-09-30T09:52:19;14.43;;;5.32;;
76765;SDS011;65707;52.362;6.588;2023-09-30T09:54:47;11.63;;;5.18;;
76765;SDS011;65707;52.362;6.588;2023-09-30T09:57:18;13.38;;;4.47;;
76765;SDS011;65707;52.362;6.588;2023-09-30T09:59:46;13.30;;;4.35;;
76765;SDS011;65707;52.362;6.588;2023-09-30T10:02:14;13.07;;;5.00;;
76765;SDS011;65707;52.362;6.588;2023-09-30T10:04:43;10.85;;;4.70;;
76765;SDS011;65707;52.362;6.588;2023-09-30T10:07:12;14.68;;;4.97;;
76765;SDS011;65707;52.362;6.588;2023-09-30T10:09:46;13.05;;;4.68;;
76765;SDS011;65707;52.362;6.588;2023-09-30T10:12:19;13.98;;;4.50;;
76765;SDS011;65707;52.362;6.588;2023-09-30T10:14:48;16.10;;;4.10;;
76765;SDS011;65707;52.362;6.588;2023-09-30T10:17:15;10.82;;;3.47;;
76765;SDS011;65707;52.362;6.588;2023-09-30T10:22:32;11.60;;;4.20;;
76765;SDS011;65707;52.362;6.588;2023-09-30T10:25:00;12.10;;;3.38;;
76765;SDS011;65707;52.362;6.588;2023-09-30T10:27:35;13.10;;;3.35;;
76765;SDS011;65707;52.362;6.588;2023-09-30T10:30:05;11.20;;;3.50;;
76765;SDS011;65707;52.362;6.588;2023-09-30T10:35:43;11.38;;;3.65;;
76765;SDS011;65707;52.362;6.588;2023-09-30T10:41:06;10.27;;;2.92;;
76765;SDS011;65707;52.362;6.588;2023-09-30T10:43:35;12.18;;;3.45;;
76765;SDS011;65707;52.362;6.588;2023-09-30T10:46:04;12.15;;;3.03;;
76765;SDS011;65707;52.362;6.588;2023-09-30T10:49:14;11.45;;;2.80;;
76765;SDS011;65707;52.362;6.588;2023-09-30T10:51:43;10.63;;;3.15;;
76765;SDS011;65707;52.362;6.588;2023-09-30T10:54:12;11.82;;;3.47;;
76765;SDS011;65707;52.362;6.588;2023-09-30T10:56:39;11.60;;;3.25;;
76765;SDS011;65707;52.362;6.588;2023-09-30T10:59:08;13.52;;;3.58;;
76765;SDS011;65707;52.362;6.588;2023-09-30T11:01:34;13.63;;;3.60;;
76765;SDS011;65707;52.362;6.588;2023-09-30T11:04:02;12.27;;;3.45;;
76765;SDS011;65707;52.362;6.588;2023-09-30T11:06:31;12.38;;;3.72;;
76765;SDS011;65707;52.362;6.588;2023-09-30T11:08:59;12.70;;;2.90;;
76765;SDS011;65707;52.362;6.588;2023-09-30T11:11:32;10.95;;;3.50;;
76765;SDS011;65707;52.362;6.588;2023-09-30T11:14:00;13.65;;;3.70;;
76765;SDS011;65707;52.362;6.588;2023-09-30T11:16:29;9.93;;;2.90;;
76765;SDS011;65707;52.362;6.588;2023-09-30T11:19:01;10.90;;;2.70;;
76765;SDS011;65707;52.362;6.588;2023-09-30T11:21:28;10.32;;;2.42;;
76765;SDS011;65707;52.362;6.588;2023-09-30T11:23:55;10.68;;;2.80;;
76765;SDS011;65707;52.362;6.588;2023-09-30T11:26:28;8.63;;;2.10;;
76765;SDS011;65707;52.362;6.588;2023-09-30T11:29:04;9.35;;;2.30;;
76765;SDS011;65707;52.362;6.588;2023-09-30T11:31:33;10.68;;;2.30;;
76765;SDS011;65707;52.362;6.588;2023-09-30T11:34:02;10.13;;;2.35;;
76765;SDS011;65707;52.362;6.588;2023-09-30T11:36:30;11.93;;;2.05;;
76765;SDS011;65707;52.362;6.588;2023-09-30T11:38:57;9.30;;;2.08;;
76765;SDS011;65707;52.362;6.588;2023-09-30T11:41:32;10.70;;;2.00;;
76765;SDS011;65707;52.362;6.588;2023-09-30T11:46:46;11.45;;;2.20;;
76765;SDS011;65707;52.362;6.588;2023-09-30T11:49:23;9.68;;;2.38;;
76765;SDS011;65707;52.362;6.588;2023-09-30T11:51:53;9.50;;;2.33;;
76765;SDS011;65707;52.362;6.588;2023-09-30T11:54:20;9.32;;;2.00;;
76765;SDS011;65707;52.362;6.588;2023-09-30T11:56:48;8.93;;;2.25;;
76765;SDS011;65707;52.362;6.588;2023-09-30T11:59:16;10.35;;;2.45;;
76765;SDS011;65707;52.362;6.588;2023-09-30T12:01:46;11.32;;;2.53;;
76765;SDS011;65707;52.362;6.588;2023-09-30T12:04:14;11.45;;;2.90;;
76765;SDS011;65707;52.362;6.588;2023-09-30T12:06:42;10.88;;;2.58;;
76765;SDS011;65707;52.362;6.588;2023-09-30T12:09:09;13.27;;;2.50;;
76765;SDS011;65707;52.362;6.588;2023-09-30T12:11:39;11.77;;;2.35;;
76765;SDS011;65707;52.362;6.588;2023-09-30T12:14:09;10.73;;;2.40;;
76765;SDS011;65707;52.362;6.588;2023-09-30T12:16:38;11.80;;;2.72;;
76765;SDS011;65707;52.362;6.588;2023-09-30T12:19:07;9.73;;;2.30;;
76765;SDS011;65707;52.362;6.588;2023-09-30T12:21:35;10.50;;;2.30;;
76765;SDS011;65707;52.362;6.588;2023-09-30T12:24:02;10.15;;;2.20;;
76765;SDS011;65707;52.362;6.588;2023-09-30T12:26:30;10.00;;;2.53;;
76765;SDS011;65707;52.362;6.588;2023-09-30T12:28:57;10.35;;;2.30;;
76765;SDS011;65707;52.362;6.588;2023-09-30T12:31:24;9.27;;;1.98;;
76765;SDS011;65707;52.362;6.588;2023-09-30T12:33:50;8.50;;;2.20;;
76765;SDS011;65707;52.362;6.588;2023-09-30T12:36:20;8.95;;;2.00;;
76765;SDS011;65707;52.362;6.588;2023-09-30T12:38:47;15.00;;;2.75;;
76765;SDS011;65707;52.362;6.588;2023-09-30T12:41:14;18.17;;;3.05;;
76765;SDS011;65707;52.362;6.588;2023-09-30T12:43:41;8.05;;;2.40;;
76765;SDS011;65707;52.362;6.588;2023-09-30T12:46:08;8.70;;;2.47;;
76765;SDS011;65707;52.362;6.588;2023-09-30T12:48:38;10.45;;;2.17;;
76765;SDS011;65707;52.362;6.588;2023-09-30T12:51:05;9.82;;;2.40;;
76765;SDS011;65707;52.362;6.588;2023-09-30T12:53:36;22.33;;;3.22;;
76765;SDS011;65707;52.362;6.588;2023-09-30T12:56:03;12.75;;;2.40;;
76765;SDS011;65707;52.362;6.588;2023-09-30T12:58:30;10.13;;;2.22;;
76765;SDS011;65707;52.362;6.588;2023-09-30T13:00:58;8.88;;;2.38;;
76765;SDS011;65707;52.362;6.588;2023-09-30T13:03:24;9.70;;;2.20;;
76765;SDS011;65707;52.362;6.588;2023-09-30T13:05:51;9.70;;;2.22;;
76765;SDS011;65707;52.362;6.588;2023-09-30T13:08:19;9.73;;;2.13;;
76765;SDS011;65707;52.362;6.588;2023-09-30T13:10:47;10.40;;;2.20;;
76765;SDS011;65707;52.362;6.588;2023-09-30T13:13:15;6.82;;;1.73;;
76765;SDS011;65707;52.362;6.588;2023-09-30T13:15:42;9.20;;;2.15;;
76765;SDS011;65707;52.362;6.588;2023-09-30T13:18:09;10.93;;;2.25;;
76765;SDS011;65707;52.362;6.588;2023-09-30T13:20:36;11.57;;;2.25;;
76765;SDS011;65707;52.362;6.588;2023-09-30T13:23:03;8.13;;;1.95;;
76765;SDS011;65707;52.362;6.588;2023-09-30T13:25:29;10.00;;;2.22;;
76765;SDS011;65707;52.362;6.588;2023-09-30T13:27:57;9.85;;;2.05;;
76765;SDS011;65707;52.362;6.588;2023-09-30T13:30:24;9.52;;;2.03;;
76765;SDS011;65707;52.362;6.588;2023-09-30T13:32:51;9.10;;;2.40;;
76765;SDS011;65707;52.362;6.588;2023-09-30T13:35:18;11.32;;;2.20;;
76765;SDS011;65707;52.362;6.588;2023-09-30T13:37:45;9.52;;;2.60;;
76765;SDS011;65707;52.362;6.588;2023-09-30T13:40:12;10.13;;;2.42;;
76765;SDS011;65707;52.362;6.588;2023-09-30T13:42:39;11.68;;;2.25;;
76765;SDS011;65707;52.362;6.588;2023-09-30T13:45:09;12.05;;;3.20;;
76765;SDS011;65707;52.362;6.588;2023-09-30T13:47:37;12.65;;;2.58;;
76765;SDS011;65707;52.362;6.588;2023-09-30T13:50:04;13.00;;;2.40;;
76765;SDS011;65707;52.362;6.588;2023-09-30T13:52:33;12.90;;;2.28;;
76765;SDS011;65707;52.362;6.588;2023-09-30T13:55:00;9.55;;;2.67;;
76765;SDS011;65707;52.362;6.588;2023-09-30T13:57:27;11.98;;;2.85;;
76765;SDS011;65707;52.362;6.588;2023-09-30T13:59:54;11.07;;;2.55;;
76765;SDS011;65707;52.362;6.588;2023-09-30T14:02:23;12.38;;;2.25;;
76765;SDS011;65707;52.362;6.588;2023-09-30T14:07:18;11.68;;;2.50;;
76765;SDS011;65707;52.362;6.588;2023-09-30T14:09:45;11.27;;;2.25;;
76765;SDS011;65707;52.362;6.588;2023-09-30T14:12:12;10.68;;;2.30;;
76765;SDS011;65707;52.362;6.588;2023-09-30T14:14:39;10.52;;;2.53;;
76765;SDS011;65707;52.362;6.588;2023-09-30T14:17:06;9.93;;;2.88;;
76765;SDS011;65707;52.362;6.588;2023-09-30T14:19:37;8.15;;;2.38;;
76765;SDS011;65707;52.362;6.588;2023-09-30T14:22:05;10.43;;;2.60;;
76765;SDS011;65707;52.362;6.588;2023-09-30T14:24:34;9.75;;;2.63;;
76765;SDS011;65707;52.362;6.588;2023-09-30T14:27:01;10.15;;;2.53;;
76765;SDS011;65707;52.362;6.588;2023-09-30T14:29:29;11.77;;;2.50;;
76765;SDS011;65707;52.362;6.588;2023-09-30T14:31:57;9.27;;;2.28;;
76765;SDS011;65707;52.362;6.588;2023-09-30T14:34:24;8.55;;;2.35;;
76765;SDS011;65707;52.362;6.588;2023-09-30T14:36:53;11.13;;;2.65;;
76765;SDS011;65707;52.362;6.588;2023-09-30T14:39:20;9.40;;;2.70;;
76765;SDS011;65707;52.362;6.588;2023-09-30T14:41:47;9.38;;;2.60;;
76765;SDS011;65707;52.362;6.588;2023-09-30T14:44:13;10.75;;;2.70;;
76765;SDS011;65707;52.362;6.588;2023-09-30T14:46:40;12.40;;;3.13;;
76765;SDS011;65707;52.362;6.588;2023-09-30T14:49:08;10.95;;;3.10;;
76765;SDS011;65707;52.362;6.588;2023-09-30T14:51:35;10.63;;;2.88;;
76765;SDS011;65707;52.362;6.588;2023-09-30T14:54:04;12.90;;;3.00;;
76765;SDS011;65707;52.362;6.588;2023-09-30T14:56:31;13.02;;;3.30;;
76765;SDS011;65707;52.362;6.588;2023-09-30T14:58:58;11.93;;;2.90;;